| time (UTC) | temp F | wind direction | speed knots | gust knots | rain 1hr in | rain 24hr in | rain mn in | humidity % | barometer mb |
| 20260510194116 | 61 | 0 | 2.6 | 5.2 | 0.00 | 0.14 | 0.05 | 69 | 1011.3 |
| 20260510193116 | 61 | 0 | 4.3 | 8.7 | 0.00 | 0.14 | 0.05 | 72 | 1011.4 |
| 20260510192116 | 61 | 338 | 4.3 | 7.0 | 0.00 | 0.15 | 0.05 | 74 | 1011.5 |
| 20260510191217 | 61 | 0 | 1.7 | 3.5 | 0.00 | 0.16 | 0.05 | 76 | 1011.4 |
| 20260510190116 | 61 | 338 | 5.2 | 6.1 | 0.00 | 0.17 | 0.05 | 75 | 1011.3 |
| 20260510185116 | 61 | 0 | 3.5 | 4.3 | 0.00 | 0.18 | 0.05 | 78 | 1011.3 |
| 20260510184116 | 60 | 315 | 2.6 | 5.2 | 0.00 | 0.19 | 0.05 | 80 | 1011.4 |
| 20260510183136 | 59 | 158 | 0.9 | 3.5 | 0.01 | 0.20 | 0.05 | 85 | 1011.4 |
| 20260510182116 | 58 | 270 | 2.6 | 3.5 | 0.01 | 0.21 | 0.05 | 86 | 1011.5 |
| 20260510181116 | 57 | 338 | 2.6 | 3.5 | 0.01 | 0.22 | 0.05 | 88 | 1011.4 |
| 20260510180136 | 57 | 338 | 4.3 | 7.0 | 0.01 | 0.24 | 0.05 | 90 | 1011.5 |
| 20260510175156 | 57 | 338 | 2.6 | 3.5 | 0.03 | 0.25 | 0.05 | 91 | 1011.6 |
| 20260510174116 | 57 | 338 | 2.6 | 4.3 | 0.04 | 0.26 | 0.05 | 91 | 1011.5 |
| 20260510173116 | 57 | 0.0 | 0.0 | 0.03 | 0.26 | 0.04 | 91 | 1011.4 | |
| 20260510172116 | 57 | 338 | 1.7 | 2.6 | 0.03 | 0.27 | 0.04 | 91 | 1011.6 |
| 20260510171116 | 57 | 338 | 3.5 | 4.3 | 0.03 | 0.28 | 0.04 | 89 | 1011.3 |
| 20260510170116 | 58 | 0.0 | 0.0 | 0.03 | 0.28 | 0.04 | 87 | 1011.7 | |
| 20260510165116 | 60 | 315 | 1.7 | 3.5 | 0.01 | 0.27 | 0.02 | 81 | 1011.6 |
| 20260510164116 | 60 | 45 | 0.9 | 1.7 | 0.00 | 0.27 | 0.01 | 75 | 1011.5 |
| 20260510163116 | 60 | 135 | 0.9 | 3.5 | 0.00 | 0.28 | 0.01 | 75 | 1011.5 |
| 20260510162116 | 60 | 0.0 | 0.9 | 0.00 | 0.28 | 0.01 | 77 | 1011.6 | |
| 20260510161116 | 59 | 0 | 0.9 | 1.7 | 0.00 | 0.29 | 0.01 | 78 | 1011.6 |
| 20260510160116 | 58 | 0 | 0.9 | 2.6 | 0.00 | 0.30 | 0.01 | 80 | 1011.7 |
| 20260510155116 | 57 | 315 | 1.7 | 3.5 | 0.00 | 0.31 | 0.01 | 81 | 1011.5 |
| 20260510154116 | 57 | 0.0 | 0.0 | 0.00 | 0.32 | 0.01 | 83 | 1011.4 | |
| 20260510153116 | 56 | 113 | 0.9 | 1.7 | 0.00 | 0.33 | 0.01 | 84 | 1011.4 |
| 20260510152136 | 55 | 113 | 0.9 | 1.7 | 0.00 | 0.34 | 0.01 | 86 | 1011.4 |
| 20260510151116 | 55 | 113 | 0.9 | 1.7 | 0.00 | 0.34 | 0.01 | 86 | 1011.4 |
| 20260510150136 | 55 | 113 | 3.5 | 4.3 | 0.00 | 0.35 | 0.01 | 87 | 1011.4 |
| 20260510145116 | 54 | 90 | 1.7 | 3.5 | 0.00 | 0.35 | 0.01 | 88 | 1011.4 |
| 20260510144116 | 54 | 113 | 4.3 | 5.2 | 0.00 | 0.36 | 0.01 | 88 | 1011.4 |
| 20260510143116 | 53 | 135 | 3.5 | 4.3 | 0.00 | 0.36 | 0.01 | 91 | 1011.3 |
| 20260510142116 | 53 | 135 | 3.5 | 4.3 | 0.00 | 0.36 | 0.01 | 92 | 1011.4 |
| 20260510141136 | 53 | 135 | 3.5 | 6.1 | 0.00 | 0.36 | 0.01 | 94 | 1011.3 |
| 20260510140116 | 52 | 113 | 2.6 | 4.3 | 0.00 | 0.36 | 0.01 | 96 | 1011.4 |
| 20260510135116 | 51 | 135 | 2.6 | 3.5 | 0.00 | 0.36 | 0.01 | 96 | 1011.4 |
| 20260510134116 | 51 | 113 | 3.5 | 3.5 | 0.00 | 0.36 | 0.01 | 97 | 1011.3 |
| 20260510133116 | 50 | 135 | 1.7 | 3.5 | 0.00 | 0.36 | 0.01 | 97 | 1011.3 |
| 20260510132116 | 50 | 135 | 1.7 | 1.7 | 0.00 | 0.36 | 0.01 | 97 | 1011.1 |
| 20260510131116 | 50 | 135 | 2.6 | 4.3 | 0.00 | 0.36 | 0.01 | 97 | 1011.1 |
| 20260510130116 | 49 | 113 | 3.5 | 4.3 | 0.00 | 0.36 | 0.01 | 98 | 1011.2 |
| 20260510125116 | 49 | 135 | 0.9 | 1.7 | 0.00 | 0.36 | 0.01 | 98 | 1011.3 |
| 20260510124116 | 48 | 0.0 | 0.9 | 0.00 | 0.36 | 0.01 | 98 | 1011.3 | |
| 20260510123116 | 48 | 68 | 0.9 | 1.7 | 0.00 | 0.36 | 0.01 | 98 | 1011.4 |
| 20260510122116 | 48 | 0.0 | 0.0 | 0.00 | 0.36 | 0.01 | 98 | 1011.4 | |
| 20260510121116 | 48 | 0.0 | 0.0 | 0.00 | 0.36 | 0.01 | 98 | 1011.3 | |
| 20260510120116 | 47 | 0.0 | 0.0 | 0.00 | 0.36 | 0.01 | 97 | 1011.3 | |
| 20260510115116 | 47 | 90 | 1.7 | 1.7 | 0.00 | 0.36 | 0.01 | 98 | 1011.0 |
| 20260510114136 | 47 | 0.0 | 0.0 | 0.00 | 0.36 | 0.01 | 98 | 1011.0 | |
| 20260510113116 | 47 | 0.0 | 0.0 | 0.00 | 0.36 | 0.01 | 97 | 1011.1 | |
| 20260510112136 | 47 | 0.0 | 0.0 | 0.00 | 0.36 | 0.01 | 97 | 1011.2 | |
| 20260510111116 | 47 | 0.0 | 0.0 | 0.00 | 0.36 | 0.01 | 97 | 1011.0 | |
| 20260510110116 | 46 | 0.0 | 0.0 | 0.00 | 0.36 | 0.01 | 98 | 1010.6 | |
| 20260510105116 | 46 | 0.0 | 0.0 | 0.00 | 0.36 | 0.01 | 98 | 1010.6 | |
| 20260510104116 | 46 | 0.0 | 0.0 | 0.00 | 0.36 | 0.01 | 97 | 1010.4 | |
| 20260510103116 | 46 | 0.0 | 0.0 | 0.00 | 0.36 | 0.01 | 97 | 1010.4 | |
| 20260510102116 | 46 | 0.0 | 0.9 | 0.00 | 0.36 | 0.01 | 97 | 1010.0 | |
| 20260510101136 | 46 | 90 | 0.9 | 1.7 | 0.00 | 0.36 | 0.01 | 97 | 1009.5 |
| 20260510100116 | 45 | 90 | 3.5 | 5.2 | 0.00 | 0.36 | 0.01 | 97 | 1009.7 |
| 20260510095116 | 45 | 0.0 | 0.9 | 0.00 | 0.36 | 0.01 | 97 | 1009.6 | |
| 20260510094115 | 45 | 315 | 0.9 | 1.7 | 0.00 | 0.36 | 0.01 | 97 | 1009.8 |
| 20260510093116 | 45 | 338 | 1.7 | 2.6 | 0.00 | 0.36 | 0.01 | 97 | 1009.5 |
| 20260510092116 | 45 | 0.0 | 0.0 | 0.00 | 0.36 | 0.01 | 97 | 1009.6 | |
| 20260510091116 | 45 | 0.0 | 0.0 | 0.00 | 0.36 | 0.01 | 97 | 1009.7 | |
| 20260510090116 | 45 | 45 | 0.9 | 1.7 | 0.00 | 0.36 | 0.01 | 97 | 1009.6 |
| 20260510085116 | 45 | 135 | 0.9 | 1.7 | 0.00 | 0.36 | 0.01 | 97 | 1009.9 |
| 20260510084115 | 45 | 90 | 0.9 | 1.7 | 0.00 | 0.36 | 0.01 | 97 | 1010.1 |
| 20260510083116 | 45 | 45 | 0.9 | 1.7 | 0.00 | 0.36 | 0.01 | 97 | 1009.9 |
| 20260510082116 | 45 | 90 | 1.7 | 3.5 | 0.00 | 0.36 | 0.01 | 97 | 1010.0 |
| 20260510081116 | 45 | 113 | 1.7 | 3.5 | 0.00 | 0.36 | 0.01 | 97 | 1010.1 |
| 20260510080116 | 45 | 90 | 1.7 | 3.5 | 0.00 | 0.36 | 0.01 | 97 | 1010.2 |
| 20260510075116 | 45 | 90 | 2.6 | 3.5 | 0.00 | 0.36 | 0.01 | 97 | 1010.0 |
| 20260510074136 | 44 | 90 | 2.6 | 3.5 | 0.00 | 0.36 | 0.01 | 97 | 1010.1 |
| 20260510073116 | 44 | 90 | 2.6 | 5.2 | 0.01 | 0.36 | 0.01 | 97 | 1010.0 |
| 20260510072116 | 44 | 90 | 3.5 | 4.3 | 0.01 | 0.36 | 0.01 | 97 | 1010.0 |
| 20260510071136 | 45 | 45 | 1.7 | 1.7 | 0.01 | 0.36 | 0.01 | 97 | 1009.9 |
| 20260510070115 | 45 | 0.0 | 0.0 | 0.01 | 0.36 | 0.01 | 97 | 1010.3 | |
| 20260510065156 | 45 | 113 | 6.1 | 7.0 | 0.01 | 0.36 | 0.01 | 97 | 1010.0 |
| 20260510064116 | 44 | 90 | 3.5 | 4.3 | 0.01 | 0.36 | 0.01 | 97 | 1010.4 |
| 20260510063116 | 44 | 90 | 1.7 | 3.5 | 0.00 | 0.35 | 0.00 | 97 | 1010.4 |
| 20260510062116 | 45 | 90 | 3.5 | 4.3 | 0.00 | 0.35 | 0.00 | 97 | 1010.4 |
| 20260510061136 | 45 | 113 | 1.7 | 3.5 | 0.00 | 0.35 | 0.00 | 97 | 1010.3 |
| 20260510060116 | 44 | 90 | 3.5 | 4.3 | 0.00 | 0.35 | 0.00 | 97 | 1010.3 |
| 20260510055116 | 44 | 113 | 5.2 | 6.1 | 0.00 | 0.35 | 0.00 | 97 | 1010.4 |
| 20260510054116 | 44 | 90 | 5.2 | 6.1 | 0.00 | 0.35 | 0.00 | 97 | 1010.2 |
| 20260510053116 | 44 | 113 | 5.2 | 6.1 | 0.00 | 0.35 | 0.00 | 97 | 1010.2 |
| 20260510052116 | 44 | 90 | 2.6 | 4.3 | 0.00 | 0.35 | 0.00 | 97 | 1010.2 |
| 20260510051115 | 44 | 113 | 0.9 | 1.7 | 0.00 | 0.35 | 0.00 | 97 | 1010.4 |
| 20260510050116 | 44 | 113 | 3.5 | 4.3 | 0.00 | 0.35 | 0.00 | 97 | 1010.7 |
| 20260510045116 | 44 | 90 | 2.6 | 3.5 | 0.00 | 0.35 | 0.00 | 97 | 1010.7 |
| 20260510044116 | 44 | 113 | 5.2 | 6.1 | 0.00 | 0.35 | 0.00 | 97 | 1010.7 |
| 20260510043116 | 44 | 113 | 6.1 | 7.0 | 0.00 | 0.35 | 0.00 | 97 | 1010.7 |
| 20260510042115 | 44 | 135 | 6.1 | 7.8 | 0.00 | 0.35 | 0.00 | 97 | 1010.9 |
| 20260510041116 | 44 | 135 | 7.0 | 9.6 | 0.00 | 0.35 | 0.00 | 97 | 1010.8 |
| 20260510040116 | 44 | 113 | 5.2 | 6.1 | 0.00 | 0.35 | 0.00 | 97 | 1010.7 |
| 20260510035117 | 44 | 135 | 4.3 | 5.2 | 0.00 | 0.35 | 0.35 | 97 | 1010.7 |
| 20260510034117 | 44 | 90 | 4.3 | 5.2 | 0.00 | 0.35 | 0.35 | 97 | 1010.7 |
| 20260510033117 | 44 | 113 | 4.3 | 5.2 | 0.00 | 0.35 | 0.35 | 97 | 1010.7 |
| 20260510032117 | 44 | 113 | 3.5 | 5.2 | 0.00 | 0.35 | 0.35 | 97 | 1010.8 |
| 20260510031117 | 44 | 90 | 4.3 | 6.1 | 0.00 | 0.35 | 0.35 | 97 | 1011.1 |
| 20260510030116 | 44 | 113 | 4.3 | 5.2 | 0.00 | 0.35 | 0.35 | 97 | 1011.2 |
| 20260510025118 | 44 | 113 | 6.1 | 7.0 | 0.00 | 0.35 | 0.35 | 97 | 1011.3 |
| 20260510024116 | 44 | 113 | 4.3 | 6.1 | 0.00 | 0.35 | 0.35 | 97 | 1011.5 |
| 20260510023117 | 44 | 113 | 4.3 | 6.1 | 0.00 | 0.35 | 0.35 | 97 | 1011.6 |
| 20260510022117 | 44 | 113 | 5.2 | 6.1 | 0.00 | 0.35 | 0.35 | 97 | 1011.5 |
| 20260510021117 | 44 | 113 | 5.2 | 6.1 | 0.00 | 0.35 | 0.35 | 96 | 1011.6 |
| 20260510020116 | 44 | 90 | 5.2 | 7.0 | 0.00 | 0.35 | 0.35 | 96 | 1011.6 |
| 20260510015116 | 44 | 135 | 4.3 | 5.2 | 0.00 | 0.35 | 0.35 | 97 | 1011.7 |
| 20260510014116 | 44 | 135 | 7.0 | 9.6 | 0.00 | 0.35 | 0.35 | 97 | 1011.5 |
| 20260510013117 | 44 | 135 | 6.1 | 7.8 | 0.00 | 0.35 | 0.35 | 96 | 1011.6 |
| 20260510012137 | 44 | 113 | 6.1 | 7.8 | 0.00 | 0.35 | 0.35 | 96 | 1011.6 |
| 20260510011116 | 44 | 135 | 6.1 | 7.0 | 0.00 | 0.35 | 0.35 | 96 | 1011.7 |
| 20260510010116 | 44 | 113 | 5.2 | 6.1 | 0.00 | 0.35 | 0.35 | 96 | 1011.6 |
| 20260510005116 | 44 | 113 | 6.1 | 7.0 | 0.00 | 0.35 | 0.35 | 96 | 1011.6 |
| 20260510004137 | 44 | 135 | 6.1 | 7.8 | 0.00 | 0.35 | 0.35 | 96 | 1011.5 |
| 20260510003116 | 44 | 90 | 7.8 | 10.4 | 0.00 | 0.35 | 0.35 | 96 | 1011.2 |
| 20260510002116 | 44 | 135 | 7.0 | 7.8 | 0.00 | 0.35 | 0.35 | 96 | 1011.1 |
| 20260510001116 | 44 | 113 | 6.1 | 7.8 | 0.00 | 0.35 | 0.35 | 96 | 1010.9 |
| 20260510000116 | 44 | 113 | 7.8 | 9.6 | 0.00 | 0.35 | 0.35 | 95 | 1010.8 |
| 20260509235116 | 45 | 113 | 6.1 | 7.8 | 0.00 | 0.35 | 0.35 | 95 | 1010.6 |
| 20260509234116 | 45 | 135 | 6.1 | 7.8 | 0.00 | 0.35 | 0.35 | 95 | 1010.6 |
| 20260509233117 | 45 | 135 | 7.0 | 9.6 | 0.00 | 0.35 | 0.35 | 94 | 1010.5 |
| 20260509232157 | 45 | 113 | 6.1 | 7.8 | 0.00 | 0.35 | 0.35 | 94 | 1010.5 |
| 20260509231117 | 45 | 135 | 6.1 | 6.1 | 0.00 | 0.35 | 0.35 | 94 | 1010.3 |
| 20260509230137 | 45 | 135 | 7.0 | 7.8 | 0.00 | 0.35 | 0.35 | 94 | 1010.3 |
| 20260509225116 | 45 | 113 | 6.1 | 7.0 | 0.00 | 0.35 | 0.35 | 94 | 1010.3 |
| 20260509224116 | 45 | 113 | 7.0 | 7.8 | 0.00 | 0.35 | 0.35 | 94 | 1010.4 |
| 20260509223116 | 45 | 135 | 7.0 | 9.6 | 0.00 | 0.35 | 0.35 | 94 | 1010.3 |
| 20260509222116 | 45 | 135 | 8.7 | 11.3 | 0.01 | 0.35 | 0.35 | 94 | 1010.4 |
| 20260509221137 | 45 | 135 | 7.0 | 7.8 | 0.02 | 0.35 | 0.35 | 94 | 1010.5 |
| 20260509220116 | 45 | 113 | 6.1 | 7.8 | 0.03 | 0.35 | 0.35 | 93 | 1010.4 |
| 20260509215116 | 45 | 113 | 5.2 | 7.0 | 0.03 | 0.35 | 0.35 | 94 | 1010.5 |
| 20260509214116 | 45 | 135 | 4.3 | 5.2 | 0.04 | 0.35 | 0.35 | 94 | 1010.7 |
| 20260509213116 | 45 | 113 | 6.1 | 7.0 | 0.05 | 0.35 | 0.35 | 94 | 1010.6 |
| 20260509212116 | 45 | 135 | 8.7 | 12.2 | 0.04 | 0.34 | 0.34 | 94 | 1010.6 |
| 20260509211137 | 45 | 135 | 7.0 | 9.6 | 0.04 | 0.33 | 0.33 | 94 | 1010.7 |
| 20260509210116 | 45 | 135 | 6.1 | 7.8 | 0.04 | 0.32 | 0.32 | 94 | 1010.7 |
| 20260509205116 | 45 | 135 | 8.7 | 12.2 | 0.04 | 0.32 | 0.32 | 94 | 1010.6 |
| 20260509204117 | 45 | 113 | 4.3 | 5.2 | 0.05 | 0.31 | 0.31 | 94 | 1010.6 |
| 20260509203116 | 44 | 135 | 6.1 | 7.8 | 0.04 | 0.30 | 0.30 | 94 | 1010.6 |
| 20260509202116 | 44 | 135 | 8.7 | 10.4 | 0.05 | 0.30 | 0.30 | 94 | 1010.9 |
| 20260509201116 | 44 | 135 | 6.1 | 7.8 | 0.05 | 0.29 | 0.29 | 94 | 1010.9 |
| 20260509200137 | 44 | 113 | 3.5 | 4.3 | 0.05 | 0.28 | 0.28 | 94 | 1010.9 |
| 20260509195116 | 44 | 113 | 6.1 | 7.0 | 0.06 | 0.28 | 0.28 | 94 | 1010.9 |